sensor_id;sensor_type;location;lat;lon;timestamp;temperature;humidity
68609;SHT31;55581;46.718;7.690;2024-01-06T00:02:18;3.97;93.63
68609;SHT31;55581;46.718;7.690;2024-01-06T00:04:44;4.05;93.41
68609;SHT31;55581;46.718;7.690;2024-01-06T00:07:09;4.05;93.03
68609;SHT31;55581;46.718;7.690;2024-01-06T00:09:34;4.08;93.42
68609;SHT31;55581;46.718;7.690;2024-01-06T00:12:00;4.05;92.35
68609;SHT31;55581;46.718;7.690;2024-01-06T00:14:27;4.08;91.97
68609;SHT31;55581;46.718;7.690;2024-01-06T00:16:52;4.05;91.46
68609;SHT31;55581;46.718;7.690;2024-01-06T00:19:18;4.01;92.45
68609;SHT31;55581;46.718;7.690;2024-01-06T00:21:43;3.97;92.42
68609;SHT31;55581;46.718;7.690;2024-01-06T00:24:11;3.95;93.75
68609;SHT31;55581;46.718;7.690;2024-01-06T00:26:36;4.03;94.18
68609;SHT31;55581;46.718;7.690;2024-01-06T00:29:04;3.94;92.36
68609;SHT31;55581;46.718;7.690;2024-01-06T00:31:30;3.91;92.01
68609;SHT31;55581;46.718;7.690;2024-01-06T00:33:55;3.89;92.83
68609;SHT31;55581;46.718;7.690;2024-01-06T00:36:20;3.94;92.32
68609;SHT31;55581;46.718;7.690;2024-01-06T00:38:46;3.91;92.13
68609;SHT31;55581;46.718;7.690;2024-01-06T00:41:15;3.84;92.18
68609;SHT31;55581;46.718;7.690;2024-01-06T00:43:41;3.88;93.45
68609;SHT31;55581;46.718;7.690;2024-01-06T00:46:06;3.82;93.14
68609;SHT31;55581;46.718;7.690;2024-01-06T00:48:31;3.88;92.95
68609;SHT31;55581;46.718;7.690;2024-01-06T00:50:59;3.89;92.60
68609;SHT31;55581;46.718;7.690;2024-01-06T00:53:25;3.91;93.00
68609;SHT31;55581;46.718;7.690;2024-01-06T00:55:50;3.95;92.95
68609;SHT31;55581;46.718;7.690;2024-01-06T00:58:18;3.92;92.44
68609;SHT31;55581;46.718;7.690;2024-01-06T01:00:43;3.91;92.11
68609;SHT31;55581;46.718;7.690;2024-01-06T01:03:11;3.94;92.75
68609;SHT31;55581;46.718;7.690;2024-01-06T01:05:36;3.97;92.45
68609;SHT31;55581;46.718;7.690;2024-01-06T01:08:02;3.92;93.90
68609;SHT31;55581;46.718;7.690;2024-01-06T01:10:28;3.91;93.67
68609;SHT31;55581;46.718;7.690;2024-01-06T01:12:53;3.95;94.66
68609;SHT31;55581;46.718;7.690;2024-01-06T01:15:18;3.95;93.74
68609;SHT31;55581;46.718;7.690;2024-01-06T01:17:45;3.95;92.96
68609;SHT31;55581;46.718;7.690;2024-01-06T01:20:10;3.97;93.37
68609;SHT31;55581;46.718;7.690;2024-01-06T01:22:36;3.94;92.86
68609;SHT31;55581;46.718;7.690;2024-01-06T01:25:04;3.99;94.04
68609;SHT31;55581;46.718;7.690;2024-01-06T01:27:34;4.02;94.02
68609;SHT31;55581;46.718;7.690;2024-01-06T01:29:59;4.03;93.65
68609;SHT31;55581;46.718;7.690;2024-01-06T01:32:25;3.99;92.80
68609;SHT31;55581;46.718;7.690;2024-01-06T01:34:53;3.98;92.92
68609;SHT31;55581;46.718;7.690;2024-01-06T01:37:20;3.88;91.82
68609;SHT31;55581;46.718;7.690;2024-01-06T01:39:45;3.91;92.93
68609;SHT31;55581;46.718;7.690;2024-01-06T01:42:10;3.81;93.65
68609;SHT31;55581;46.718;7.690;2024-01-06T01:44:38;3.79;93.84
68609;SHT31;55581;46.718;7.690;2024-01-06T01:47:07;3.79;94.24
68609;SHT31;55581;46.718;7.690;2024-01-06T01:49:32;3.87;93.66
68609;SHT31;55581;46.718;7.690;2024-01-06T01:51:58;3.82;94.08
68609;SHT31;55581;46.718;7.690;2024-01-06T01:54:26;3.77;93.92
68609;SHT31;55581;46.718;7.690;2024-01-06T01:56:53;3.79;94.45
68609;SHT31;55581;46.718;7.690;2024-01-06T01:59:20;3.77;94.03
68609;SHT31;55581;46.718;7.690;2024-01-06T02:01:45;3.75;94.38
68609;SHT31;55581;46.718;7.690;2024-01-06T02:04:12;3.84;94.77
68609;SHT31;55581;46.718;7.690;2024-01-06T02:06:37;3.82;94.49
68609;SHT31;55581;46.718;7.690;2024-01-06T02:09:02;3.84;94.71
68609;SHT31;55581;46.718;7.690;2024-01-06T02:11:28;3.78;94.01
68609;SHT31;55581;46.718;7.690;2024-01-06T02:13:55;3.81;94.22
68609;SHT31;55581;46.718;7.690;2024-01-06T02:16:20;3.74;94.32
68609;SHT31;55581;46.718;7.690;2024-01-06T02:18:46;3.79;94.75
68609;SHT31;55581;46.718;7.690;2024-01-06T02:21:14;3.85;94.55
68609;SHT31;55581;46.718;7.690;2024-01-06T02:23:40;3.91;94.62
68609;SHT31;55581;46.718;7.690;2024-01-06T02:26:05;3.94;93.79
68609;SHT31;55581;46.718;7.690;2024-01-06T02:28:31;3.87;93.31
68609;SHT31;55581;46.718;7.690;2024-01-06T02:30:56;3.92;94.07
68609;SHT31;55581;46.718;7.690;2024-01-06T02:33:23;3.92;94.01
68609;SHT31;55581;46.718;7.690;2024-01-06T02:35:49;3.99;94.78
68609;SHT31;55581;46.718;7.690;2024-01-06T02:38:15;4.05;94.70
68609;SHT31;55581;46.718;7.690;2024-01-06T02:40:40;4.05;93.79
68609;SHT31;55581;46.718;7.690;2024-01-06T02:43:08;4.06;94.13
68609;SHT31;55581;46.718;7.690;2024-01-06T02:45:34;4.05;93.55
68609;SHT31;55581;46.718;7.690;2024-01-06T02:47:59;4.03;94.03
68609;SHT31;55581;46.718;7.690;2024-01-06T02:50:25;4.01;93.95
68609;SHT31;55581;46.718;7.690;2024-01-06T02:52:53;3.98;94.30
68609;SHT31;55581;46.718;7.690;2024-01-06T02:55:18;3.99;94.45
68609;SHT31;55581;46.718;7.690;2024-01-06T02:57:43;4.01;94.64
68609;SHT31;55581;46.718;7.690;2024-01-06T03:00:09;3.98;94.20
68609;SHT31;55581;46.718;7.690;2024-01-06T03:02:35;3.92;94.25
68609;SHT31;55581;46.718;7.690;2024-01-06T03:05:03;3.97;94.64
68609;SHT31;55581;46.718;7.690;2024-01-06T03:07:28;4.05;94.38
68609;SHT31;55581;46.718;7.690;2024-01-06T03:09:54;4.05;93.73
68609;SHT31;55581;46.718;7.690;2024-01-06T03:12:21;4.06;94.41
68609;SHT31;55581;46.718;7.690;2024-01-06T03:14:47;4.09;93.60
68609;SHT31;55581;46.718;7.690;2024-01-06T03:17:12;4.09;94.61
68609;SHT31;55581;46.718;7.690;2024-01-06T03:19:40;4.10;94.10
68609;SHT31;55581;46.718;7.690;2024-01-06T03:22:05;4.05;93.54
68609;SHT31;55581;46.718;7.690;2024-01-06T03:24:31;4.13;94.57
68609;SHT31;55581;46.718;7.690;2024-01-06T03:26:56;4.15;93.84
68609;SHT31;55581;46.718;7.690;2024-01-06T03:29:22;4.10;93.10
68609;SHT31;55581;46.718;7.690;2024-01-06T03:31:47;4.08;93.46
68609;SHT31;55581;46.718;7.690;2024-01-06T03:34:15;4.06;93.41
68609;SHT31;55581;46.718;7.690;2024-01-06T03:36:40;4.12;93.79
68609;SHT31;55581;46.718;7.690;2024-01-06T03:39:07;4.02;94.45
68609;SHT31;55581;46.718;7.690;2024-01-06T03:41:32;4.01;94.03
68609;SHT31;55581;46.718;7.690;2024-01-06T03:43:58;4.03;94.08
68609;SHT31;55581;46.718;7.690;2024-01-06T03:46:24;4.01;93.13
68609;SHT31;55581;46.718;7.690;2024-01-06T03:48:49;4.06;92.83
68609;SHT31;55581;46.718;7.690;2024-01-06T03:51:15;4.10;92.73
68609;SHT31;55581;46.718;7.690;2024-01-06T03:53:40;4.02;92.73
68609;SHT31;55581;46.718;7.690;2024-01-06T03:56:06;4.03;92.86
68609;SHT31;55581;46.718;7.690;2024-01-06T03:58:32;3.99;92.26
68609;SHT31;55581;46.718;7.690;2024-01-06T04:00:58;4.02;92.23
68609;SHT31;55581;46.718;7.690;2024-01-06T04:03:24;3.99;92.19
68609;SHT31;55581;46.718;7.690;2024-01-06T04:05:49;3.95;91.74
68609;SHT31;55581;46.718;7.690;2024-01-06T04:08:15;3.94;91.49
68609;SHT31;55581;46.718;7.690;2024-01-06T04:10:40;3.84;92.01
68609;SHT31;55581;46.718;7.690;2024-01-06T04:13:07;3.79;91.64
68609;SHT31;55581;46.718;7.690;2024-01-06T04:15:33;3.81;91.99
68609;SHT31;55581;46.718;7.690;2024-01-06T04:18:01;3.84;92.50
68609;SHT31;55581;46.718;7.690;2024-01-06T04:20:27;3.85;92.99
68609;SHT31;55581;46.718;7.690;2024-01-06T04:22:53;3.84;92.37
68609;SHT31;55581;46.718;7.690;2024-01-06T04:25:20;3.84;91.94
68609;SHT31;55581;46.718;7.690;2024-01-06T04:27:46;3.77;92.44
68609;SHT31;55581;46.718;7.690;2024-01-06T04:30:14;3.75;92.65
68609;SHT31;55581;46.718;7.690;2024-01-06T04:32:41;3.78;93.04
68609;SHT31;55581;46.718;7.690;2024-01-06T04:35:07;3.75;92.21
68609;SHT31;55581;46.718;7.690;2024-01-06T04:37:33;3.74;92.37
68609;SHT31;55581;46.718;7.690;2024-01-06T04:39:58;3.75;92.72
68609;SHT31;55581;46.718;7.690;2024-01-06T04:42:24;3.74;93.11
68609;SHT31;55581;46.718;7.690;2024-01-06T04:44:50;3.74;92.91
68609;SHT31;55581;46.718;7.690;2024-01-06T04:47:15;3.73;92.92
68609;SHT31;55581;46.718;7.690;2024-01-06T04:49:41;3.67;92.82
68609;SHT31;55581;46.718;7.690;2024-01-06T04:52:06;3.68;93.34
68609;SHT31;55581;46.718;7.690;2024-01-06T04:54:32;3.73;92.50
68609;SHT31;55581;46.718;7.690;2024-01-06T04:56:58;3.63;92.28
68609;SHT31;55581;46.718;7.690;2024-01-06T04:59:26;3.56;92.73
68609;SHT31;55581;46.718;7.690;2024-01-06T05:01:51;3.51;93.36
68609;SHT31;55581;46.718;7.690;2024-01-06T05:04:18;3.47;93.62
68609;SHT31;55581;46.718;7.690;2024-01-06T05:06:44;3.46;93.60
68609;SHT31;55581;46.718;7.690;2024-01-06T05:09:11;3.47;93.82
68609;SHT31;55581;46.718;7.690;2024-01-06T05:11:37;3.49;93.20
68609;SHT31;55581;46.718;7.690;2024-01-06T05:14:02;3.54;92.62
68609;SHT31;55581;46.718;7.690;2024-01-06T05:16:28;3.50;92.92
68609;SHT31;55581;46.718;7.690;2024-01-06T05:18:53;3.49;93.11
68609;SHT31;55581;46.718;7.690;2024-01-06T05:21:19;3.49;93.02
68609;SHT31;55581;46.718;7.690;2024-01-06T05:23:45;3.49;92.44
68609;SHT31;55581;46.718;7.690;2024-01-06T05:26:10;3.51;92.45
68609;SHT31;55581;46.718;7.690;2024-01-06T05:28:37;3.50;92.60
68609;SHT31;55581;46.718;7.690;2024-01-06T05:31:02;3.49;92.46
68609;SHT31;55581;46.718;7.690;2024-01-06T05:33:28;3.42;92.44
68609;SHT31;55581;46.718;7.690;2024-01-06T05:35:53;3.32;93.43
68609;SHT31;55581;46.718;7.690;2024-01-06T05:38:19;3.30;92.99
68609;SHT31;55581;46.718;7.690;2024-01-06T05:40:44;3.29;92.90
68609;SHT31;55581;46.718;7.690;2024-01-06T05:43:10;3.24;93.04
68609;SHT31;55581;46.718;7.690;2024-01-06T05:45:35;3.30;92.65
68609;SHT31;55581;46.718;7.690;2024-01-06T05:48:05;3.29;92.87
68609;SHT31;55581;46.718;7.690;2024-01-06T05:50:33;3.30;92.47
68609;SHT31;55581;46.718;7.690;2024-01-06T05:52:58;3.24;92.78
68609;SHT31;55581;46.718;7.690;2024-01-06T05:55:28;3.27;93.35
68609;SHT31;55581;46.718;7.690;2024-01-06T05:57:54;3.27;93.69
68609;SHT31;55581;46.718;7.690;2024-01-06T06:00:19;3.34;93.17
68609;SHT31;55581;46.718;7.690;2024-01-06T06:02:45;3.32;93.16
68609;SHT31;55581;46.718;7.690;2024-01-06T06:05:10;3.29;93.25
68609;SHT31;55581;46.718;7.690;2024-01-06T06:07:36;3.27;93.80
68609;SHT31;55581;46.718;7.690;2024-01-06T06:10:08;3.23;94.07
68609;SHT31;55581;46.718;7.690;2024-01-06T06:12:34;3.24;93.70
68609;SHT31;55581;46.718;7.690;2024-01-06T06:15:00;3.18;94.13
68609;SHT31;55581;46.718;7.690;2024-01-06T06:17:30;3.18;94.12
68609;SHT31;55581;46.718;7.690;2024-01-06T06:19:57;3.15;94.41
68609;SHT31;55581;46.718;7.690;2024-01-06T06:22:23;3.16;93.77
68609;SHT31;55581;46.718;7.690;2024-01-06T06:24:48;3.16;93.47
68609;SHT31;55581;46.718;7.690;2024-01-06T06:27:16;3.20;93.97
68609;SHT31;55581;46.718;7.690;2024-01-06T06:29:42;3.23;93.37
68609;SHT31;55581;46.718;7.690;2024-01-06T06:32:08;3.22;93.31
68609;SHT31;55581;46.718;7.690;2024-01-06T06:34:33;3.22;93.40
68609;SHT31;55581;46.718;7.690;2024-01-06T06:36:59;3.20;93.55
68609;SHT31;55581;46.718;7.690;2024-01-06T06:39:24;3.24;92.95
68609;SHT31;55581;46.718;7.690;2024-01-06T06:41:49;3.22;93.47
68609;SHT31;55581;46.718;7.690;2024-01-06T06:44:15;3.27;93.77
68609;SHT31;55581;46.718;7.690;2024-01-06T06:46:43;3.30;93.45
68609;SHT31;55581;46.718;7.690;2024-01-06T06:49:08;3.32;93.86
68609;SHT31;55581;46.718;7.690;2024-01-06T06:51:33;3.27;93.95
68609;SHT31;55581;46.718;7.690;2024-01-06T06:54:01;3.23;93.60
68609;SHT31;55581;46.718;7.690;2024-01-06T06:56:26;3.27;92.67
68609;SHT31;55581;46.718;7.690;2024-01-06T06:58:52;3.24;93.22
68609;SHT31;55581;46.718;7.690;2024-01-06T07:01:17;3.30;92.88
68609;SHT31;55581;46.718;7.690;2024-01-06T07:03:44;3.23;92.75
68609;SHT31;55581;46.718;7.690;2024-01-06T07:06:13;3.30;92.33
68609;SHT31;55581;46.718;7.690;2024-01-06T07:08:39;3.26;92.43
68609;SHT31;55581;46.718;7.690;2024-01-06T07:11:05;3.26;93.00
68609;SHT31;55581;46.718;7.690;2024-01-06T07:13:30;3.22;93.21
68609;SHT31;55581;46.718;7.690;2024-01-06T07:15:55;3.23;92.69
68609;SHT31;55581;46.718;7.690;2024-01-06T07:18:21;3.16;93.43
68609;SHT31;55581;46.718;7.690;2024-01-06T07:20:49;3.18;93.34
68609;SHT31;55581;46.718;7.690;2024-01-06T07:23:15;3.19;93.03
68609;SHT31;55581;46.718;7.690;2024-01-06T07:25:40;3.18;92.86
68609;SHT31;55581;46.718;7.690;2024-01-06T07:28:09;3.20;92.94
68609;SHT31;55581;46.718;7.690;2024-01-06T07:30:35;3.24;93.36
68609;SHT31;55581;46.718;7.690;2024-01-06T07:33:00;3.22;94.53
68609;SHT31;55581;46.718;7.690;2024-01-06T07:35:26;3.20;94.15
68609;SHT31;55581;46.718;7.690;2024-01-06T07:37:51;3.23;93.81
68609;SHT31;55581;46.718;7.690;2024-01-06T07:40:16;3.32;93.48
68609;SHT31;55581;46.718;7.690;2024-01-06T07:42:43;3.34;93.07
68609;SHT31;55581;46.718;7.690;2024-01-06T07:45:09;3.34;93.15
68609;SHT31;55581;46.718;7.690;2024-01-06T07:47:34;3.36;93.62
68609;SHT31;55581;46.718;7.690;2024-01-06T07:50:00;3.32;93.60
68609;SHT31;55581;46.718;7.690;2024-01-06T07:52:25;3.29;93.40
68609;SHT31;55581;46.718;7.690;2024-01-06T07:54:54;3.26;92.81
68609;SHT31;55581;46.718;7.690;2024-01-06T07:57:20;3.27;92.75
68609;SHT31;55581;46.718;7.690;2024-01-06T07:59:46;3.26;93.75
68609;SHT31;55581;46.718;7.690;2024-01-06T08:02:11;3.18;93.35
68609;SHT31;55581;46.718;7.690;2024-01-06T08:04:38;3.16;93.04
68609;SHT31;55581;46.718;7.690;2024-01-06T08:07:05;3.24;92.97
68609;SHT31;55581;46.718;7.690;2024-01-06T08:09:30;3.22;92.53
68609;SHT31;55581;46.718;7.690;2024-01-06T08:11:56;3.26;93.43
68609;SHT31;55581;46.718;7.690;2024-01-06T08:14:21;3.33;93.54
68609;SHT31;55581;46.718;7.690;2024-01-06T08:16:47;3.36;93.57
68609;SHT31;55581;46.718;7.690;2024-01-06T08:19:12;3.37;92.97
68609;SHT31;55581;46.718;7.690;2024-01-06T08:21:38;3.37;92.43
68609;SHT31;55581;46.718;7.690;2024-01-06T08:24:04;3.40;92.42
68609;SHT31;55581;46.718;7.690;2024-01-06T08:26:30;3.34;92.70
68609;SHT31;55581;46.718;7.690;2024-01-06T08:28:56;3.37;92.75
68609;SHT31;55581;46.718;7.690;2024-01-06T08:31:22;3.42;92.49
68609;SHT31;55581;46.718;7.690;2024-01-06T08:33:48;3.47;92.43
68609;SHT31;55581;46.718;7.690;2024-01-06T08:36:13;3.49;92.75
68609;SHT31;55581;46.718;7.690;2024-01-06T08:38:39;3.46;92.05
68609;SHT31;55581;46.718;7.690;2024-01-06T08:41:07;3.44;92.29
68609;SHT31;55581;46.718;7.690;2024-01-06T08:43:33;3.44;92.40
68609;SHT31;55581;46.718;7.690;2024-01-06T08:45:58;3.53;92.44
68609;SHT31;55581;46.718;7.690;2024-01-06T08:48:24;3.60;93.03
68609;SHT31;55581;46.718;7.690;2024-01-06T08:50:50;3.66;93.04
68609;SHT31;55581;46.718;7.690;2024-01-06T08:53:16;3.73;91.62
68609;SHT31;55581;46.718;7.690;2024-01-06T08:55:41;3.81;92.58
68609;SHT31;55581;46.718;7.690;2024-01-06T08:58:07;3.85;92.49
68609;SHT31;55581;46.718;7.690;2024-01-06T09:00:35;3.91;91.93
68609;SHT31;55581;46.718;7.690;2024-01-06T09:03:00;3.99;91.77
68609;SHT31;55581;46.718;7.690;2024-01-06T09:05:25;3.99;91.84
68609;SHT31;55581;46.718;7.690;2024-01-06T09:07:51;3.98;91.92
68609;SHT31;55581;46.718;7.690;2024-01-06T09:10:19;4.03;92.06
68609;SHT31;55581;46.718;7.690;2024-01-06T09:12:44;4.10;92.67
68609;SHT31;55581;46.718;7.690;2024-01-06T09:15:10;4.15;92.26
68609;SHT31;55581;46.718;7.690;2024-01-06T09:17:35;4.15;91.53
68609;SHT31;55581;46.718;7.690;2024-01-06T09:20:01;4.17;91.53
68609;SHT31;55581;46.718;7.690;2024-01-06T09:22:27;4.16;92.27
68609;SHT31;55581;46.718;7.690;2024-01-06T09:24:52;4.20;92.29
68609;SHT31;55581;46.718;7.690;2024-01-06T09:27:19;4.22;91.84
68609;SHT31;55581;46.718;7.690;2024-01-06T09:29:44;4.23;91.68
68609;SHT31;55581;46.718;7.690;2024-01-06T09:32:10;4.13;91.93
68609;SHT31;55581;46.718;7.690;2024-01-06T09:34:35;4.22;92.04
68609;SHT31;55581;46.718;7.690;2024-01-06T09:37:01;4.28;92.39
68609;SHT31;55581;46.718;7.690;2024-01-06T09:39:30;4.26;91.32
68609;SHT31;55581;46.718;7.690;2024-01-06T09:41:57;4.37;91.46
68609;SHT31;55581;46.718;7.690;2024-01-06T09:44:22;4.32;90.34
68609;SHT31;55581;46.718;7.690;2024-01-06T09:46:49;4.34;90.91
68609;SHT31;55581;46.718;7.690;2024-01-06T09:49:15;4.42;90.89
68609;SHT31;55581;46.718;7.690;2024-01-06T09:51:41;4.33;89.53
68609;SHT31;55581;46.718;7.690;2024-01-06T09:54:12;4.34;88.87
68609;SHT31;55581;46.718;7.690;2024-01-06T09:56:39;4.28;90.57
68609;SHT31;55581;46.718;7.690;2024-01-06T09:59:04;4.26;90.30
68609;SHT31;55581;46.718;7.690;2024-01-06T10:01:30;4.10;90.75
68609;SHT31;55581;46.718;7.690;2024-01-06T10:03:55;4.13;91.76
68609;SHT31;55581;46.718;7.690;2024-01-06T10:06:21;4.10;90.17
68609;SHT31;55581;46.718;7.690;2024-01-06T10:08:52;4.13;92.33
68609;SHT31;55581;46.718;7.690;2024-01-06T10:11:24;4.12;90.40
68609;SHT31;55581;46.718;7.690;2024-01-06T10:13:50;4.10;90.73
68609;SHT31;55581;46.718;7.690;2024-01-06T10:16:16;3.89;90.39
68609;SHT31;55581;46.718;7.690;2024-01-06T10:18:45;4.01;90.09
68609;SHT31;55581;46.718;7.690;2024-01-06T10:21:10;3.92;89.80
68609;SHT31;55581;46.718;7.690;2024-01-06T10:23:36;3.97;90.96
68609;SHT31;55581;46.718;7.690;2024-01-06T10:26:02;3.91;90.31
68609;SHT31;55581;46.718;7.690;2024-01-06T10:28:29;3.84;90.46
68609;SHT31;55581;46.718;7.690;2024-01-06T10:30:57;3.94;91.46
68609;SHT31;55581;46.718;7.690;2024-01-06T10:33:25;3.99;92.13
68609;SHT31;55581;46.718;7.690;2024-01-06T10:35:52;4.09;91.23
68609;SHT31;55581;46.718;7.690;2024-01-06T10:38:17;4.19;91.86
68609;SHT31;55581;46.718;7.690;2024-01-06T10:40:59;4.26;90.86
68609;SHT31;55581;46.718;7.690;2024-01-06T10:43:26;4.32;89.73
68609;SHT31;55581;46.718;7.690;2024-01-06T10:45:58;4.15;90.69
68609;SHT31;55581;46.718;7.690;2024-01-06T10:48:26;4.23;91.55
68609;SHT31;55581;46.718;7.690;2024-01-06T10:50:55;4.25;89.57
68609;SHT31;55581;46.718;7.690;2024-01-06T10:53:21;4.19;90.92
68609;SHT31;55581;46.718;7.690;2024-01-06T10:55:50;4.33;90.93
68609;SHT31;55581;46.718;7.690;2024-01-06T10:58:19;4.28;91.07
68609;SHT31;55581;46.718;7.690;2024-01-06T11:00:47;4.32;91.26
68609;SHT31;55581;46.718;7.690;2024-01-06T11:03:14;4.34;90.64
68609;SHT31;55581;46.718;7.690;2024-01-06T11:05:41;4.30;90.56
68609;SHT31;55581;46.718;7.690;2024-01-06T11:08:08;4.37;89.62
68609;SHT31;55581;46.718;7.690;2024-01-06T11:10:37;4.32;91.13
68609;SHT31;55581;46.718;7.690;2024-01-06T11:13:16;4.36;91.09
68609;SHT31;55581;46.718;7.690;2024-01-06T11:15:48;4.49;91.41
68609;SHT31;55581;46.718;7.690;2024-01-06T11:21:19;4.57;90.24
68609;SHT31;55581;46.718;7.690;2024-01-06T11:24:19;4.57;89.90
68609;SHT31;55581;46.718;7.690;2024-01-06T11:26:52;4.52;89.36
68609;SHT31;55581;46.718;7.690;2024-01-06T11:29:20;4.44;89.54
68609;SHT31;55581;46.718;7.690;2024-01-06T11:32:20;4.43;89.41
68609;SHT31;55581;46.718;7.690;2024-01-06T11:34:55;4.33;89.53
68609;SHT31;55581;46.718;7.690;2024-01-06T11:37:35;4.33;89.85
68609;SHT31;55581;46.718;7.690;2024-01-06T11:40:26;4.26;89.17
68609;SHT31;55581;46.718;7.690;2024-01-06T11:43:10;4.29;90.43
68609;SHT31;55581;46.718;7.690;2024-01-06T11:45:44;4.22;89.48
68609;SHT31;55581;46.718;7.690;2024-01-06T11:48:11;4.30;90.69
68609;SHT31;55581;46.718;7.690;2024-01-06T11:50:40;4.29;90.79
68609;SHT31;55581;46.718;7.690;2024-01-06T11:53:07;4.32;89.83
68609;SHT31;55581;46.718;7.690;2024-01-06T11:55:32;4.32;89.57
68609;SHT31;55581;46.718;7.690;2024-01-06T11:58:04;4.33;90.09
68609;SHT31;55581;46.718;7.690;2024-01-06T12:00:35;4.37;89.36
68609;SHT31;55581;46.718;7.690;2024-01-06T12:03:04;4.37;89.95
68609;SHT31;55581;46.718;7.690;2024-01-06T12:05:31;4.32;89.95
68609;SHT31;55581;46.718;7.690;2024-01-06T12:08:00;4.34;89.68
68609;SHT31;55581;46.718;7.690;2024-01-06T12:10:28;4.32;89.70
68609;SHT31;55581;46.718;7.690;2024-01-06T12:13:07;4.36;89.80
68609;SHT31;55581;46.718;7.690;2024-01-06T12:15:36;4.39;90.42
68609;SHT31;55581;46.718;7.690;2024-01-06T12:18:05;4.37;89.60
68609;SHT31;55581;46.718;7.690;2024-01-06T12:20:32;4.40;90.68
68609;SHT31;55581;46.718;7.690;2024-01-06T12:22:58;4.50;89.92
68609;SHT31;55581;46.718;7.690;2024-01-06T12:25:26;4.52;90.31
68609;SHT31;55581;46.718;7.690;2024-01-06T12:27:54;4.52;89.98
68609;SHT31;55581;46.718;7.690;2024-01-06T12:30:21;4.56;90.22
68609;SHT31;55581;46.718;7.690;2024-01-06T12:32:47;4.57;90.86
68609;SHT31;55581;46.718;7.690;2024-01-06T12:35:20;4.52;90.31
68609;SHT31;55581;46.718;7.690;2024-01-06T12:37:46;4.50;90.10
68609;SHT31;55581;46.718;7.690;2024-01-06T12:40:13;4.52;89.80
68609;SHT31;55581;46.718;7.690;2024-01-06T12:42:38;4.34;89.12
68609;SHT31;55581;46.718;7.690;2024-01-06T12:45:05;4.37;89.89
68609;SHT31;55581;46.718;7.690;2024-01-06T12:47:34;4.34;89.75
68609;SHT31;55581;46.718;7.690;2024-01-06T12:50:00;4.37;90.96
68609;SHT31;55581;46.718;7.690;2024-01-06T12:52:25;4.36;90.71
68609;SHT31;55581;46.718;7.690;2024-01-06T12:54:51;4.40;89.17
68609;SHT31;55581;46.718;7.690;2024-01-06T12:57:17;4.30;89.59
68609;SHT31;55581;46.718;7.690;2024-01-06T12:59:43;4.26;89.99
68609;SHT31;55581;46.718;7.690;2024-01-06T13:02:08;4.28;90.62
68609;SHT31;55581;46.718;7.690;2024-01-06T13:04:34;4.30;89.69
68609;SHT31;55581;46.718;7.690;2024-01-06T13:07:00;4.26;89.92
68609;SHT31;55581;46.718;7.690;2024-01-06T13:09:27;4.25;90.19
68609;SHT31;55581;46.718;7.690;2024-01-06T13:11:52;4.15;89.63
68609;SHT31;55581;46.718;7.690;2024-01-06T13:14:26;4.12;90.50
68609;SHT31;55581;46.718;7.690;2024-01-06T13:16:51;4.09;90.19
68609;SHT31;55581;46.718;7.690;2024-01-06T13:19:17;4.17;90.43
68609;SHT31;55581;46.718;7.690;2024-01-06T13:21:45;4.22;90.41
68609;SHT31;55581;46.718;7.690;2024-01-06T13:24:13;4.25;89.92
68609;SHT31;55581;46.718;7.690;2024-01-06T13:26:38;4.23;88.99
68609;SHT31;55581;46.718;7.690;2024-01-06T13:29:04;4.19;88.83
68609;SHT31;55581;46.718;7.690;2024-01-06T13:31:32;4.15;89.14
68609;SHT31;55581;46.718;7.690;2024-01-06T13:33:58;4.06;89.60
68609;SHT31;55581;46.718;7.690;2024-01-06T13:36:23;3.99;90.01
68609;SHT31;55581;46.718;7.690;2024-01-06T13:38:48;3.97;89.40
68609;SHT31;55581;46.718;7.690;2024-01-06T13:41:17;3.92;90.91
68609;SHT31;55581;46.718;7.690;2024-01-06T13:43:47;3.85;90.78
68609;SHT31;55581;46.718;7.690;2024-01-06T13:46:14;3.85;91.03
68609;SHT31;55581;46.718;7.690;2024-01-06T13:48:40;3.77;90.73
68609;SHT31;55581;46.718;7.690;2024-01-06T13:51:06;3.74;91.95
68609;SHT31;55581;46.718;7.690;2024-01-06T13:53:31;3.75;91.36
68609;SHT31;55581;46.718;7.690;2024-01-06T13:55:57;3.77;91.08
68609;SHT31;55581;46.718;7.690;2024-01-06T13:58:22;3.78;91.55
68609;SHT31;55581;46.718;7.690;2024-01-06T14:00:48;3.82;90.78
68609;SHT31;55581;46.718;7.690;2024-01-06T14:03:13;3.77;90.99
68609;SHT31;55581;46.718;7.690;2024-01-06T14:05:39;3.71;91.02
68609;SHT31;55581;46.718;7.690;2024-01-06T14:08:06;3.70;91.95
68609;SHT31;55581;46.718;7.690;2024-01-06T14:10:35;3.66;91.91
68609;SHT31;55581;46.718;7.690;2024-01-06T14:13:00;3.60;91.85
68609;SHT31;55581;46.718;7.690;2024-01-06T14:15:25;3.64;92.77
68609;SHT31;55581;46.718;7.690;2024-01-06T14:17:52;3.66;92.94
68609;SHT31;55581;46.718;7.690;2024-01-06T14:20:17;3.67;91.84
68609;SHT31;55581;46.718;7.690;2024-01-06T14:22:47;3.70;92.61
68609;SHT31;55581;46.718;7.690;2024-01-06T14:25:15;3.73;92.55
68609;SHT31;55581;46.718;7.690;2024-01-06T14:27:43;3.70;91.65
68609;SHT31;55581;46.718;7.690;2024-01-06T14:30:10;3.68;92.08
68609;SHT31;55581;46.718;7.690;2024-01-06T14:32:36;3.60;91.56
68609;SHT31;55581;46.718;7.690;2024-01-06T14:35:05;3.53;91.47
68609;SHT31;55581;46.718;7.690;2024-01-06T14:37:37;3.53;91.67
68609;SHT31;55581;46.718;7.690;2024-01-06T14:40:06;3.51;92.59
68609;SHT31;55581;46.718;7.690;2024-01-06T14:42:32;3.50;92.09
68609;SHT31;55581;46.718;7.690;2024-01-06T14:44:59;3.44;92.21
68609;SHT31;55581;46.718;7.690;2024-01-06T14:47:24;3.44;92.70
68609;SHT31;55581;46.718;7.690;2024-01-06T14:49:50;3.40;92.68
68609;SHT31;55581;46.718;7.690;2024-01-06T14:52:15;3.39;94.10
68609;SHT31;55581;46.718;7.690;2024-01-06T14:54:42;3.39;92.97
68609;SHT31;55581;46.718;7.690;2024-01-06T14:57:07;3.43;92.17
68609;SHT31;55581;46.718;7.690;2024-01-06T14:59:33;3.39;91.81
68609;SHT31;55581;46.718;7.690;2024-01-06T15:02:02;3.32;92.73
68609;SHT31;55581;46.718;7.690;2024-01-06T15:04:27;3.26;92.22
68609;SHT31;55581;46.718;7.690;2024-01-06T15:06:53;3.32;92.72
68609;SHT31;55581;46.718;7.690;2024-01-06T15:09:19;3.23;92.72
68609;SHT31;55581;46.718;7.690;2024-01-06T15:11:45;3.22;92.11
68609;SHT31;55581;46.718;7.690;2024-01-06T15:14:11;3.11;93.09
68609;SHT31;55581;46.718;7.690;2024-01-06T15:16:37;3.11;93.64
68609;SHT31;55581;46.718;7.690;2024-01-06T15:19:03;3.11;93.82
68609;SHT31;55581;46.718;7.690;2024-01-06T15:21:28;3.05;93.22
68609;SHT31;55581;46.718;7.690;2024-01-06T15:23:58;3.06;92.71
68609;SHT31;55581;46.718;7.690;2024-01-06T15:26:24;2.98;93.59
68609;SHT31;55581;46.718;7.690;2024-01-06T15:28:50;2.96;93.51
68609;SHT31;55581;46.718;7.690;2024-01-06T15:31:21;2.91;92.96
68609;SHT31;55581;46.718;7.690;2024-01-06T15:33:47;2.88;93.82
68609;SHT31;55581;46.718;7.690;2024-01-06T15:36:13;2.89;93.75
68609;SHT31;55581;46.718;7.690;2024-01-06T15:38:39;2.85;93.32
68609;SHT31;55581;46.718;7.690;2024-01-06T15:41:06;2.84;93.50
68609;SHT31;55581;46.718;7.690;2024-01-06T15:43:32;2.84;93.30
68609;SHT31;55581;46.718;7.690;2024-01-06T15:45:57;2.85;93.33